Time;durP1;ratioP1;P1;durP2;ratioP2;P2;SDS_P1;SDS_P2;PMS_P1;PMS_P2;Temp;Humidity;BMP_temperature;BMP_pressure;BME280_temperature;BME280_humidity;BME280_pressure;Samples;Min_cycle;Max_cycle;Signal;HPM_P1;HPM_P2
2021/04/26 00:01:44;;;;;;;3.47;0.73;;;;;;;2.08;46.84;102519.63;5033472;28;20204;-70
2021/04/26 00:04:09;;;;;;;3.97;1.85;;;;;;;2.08;47.29;102514.47;5022423;28;20624;-70
2021/04/26 00:06:34;;;;;;;4.10;0.50;;;;;;;2.18;47.16;102516.41;5035292;28;20013;-71
2021/04/26 00:09:00;;;;;;;1.17;0.50;;;;;;;2.21;46.90;102516.47;5025740;28;20425;-71
2021/04/26 00:11:25;;;;;;;5.35;0.70;;;;;;;2.16;46.49;102514.66;5033292;28;20812;-71
2021/04/26 00:13:51;;;;;;;5.50;0.55;;;;;;;2.26;46.30;102513.97;5035279;28;20142;-71
2021/04/26 00:16:16;;;;;;;7.15;0.52;;;;;;;2.30;46.16;102513.22;5017908;28;20033;-70
2021/04/26 00:18:42;;;;;;;8.88;1.15;;;;;;;2.33;46.00;102511.56;5034815;28;20057;-69
2021/04/26 00:21:09;;;;;;;5.28;0.73;;;;;;;2.35;45.64;102509.00;5019166;28;20045;-70
2021/04/26 00:23:34;;;;;;;4.47;0.93;;;;;;;2.22;45.69;102513.06;5033403;28;20029;-71
2021/04/26 00:26:00;;;;;;;1.08;0.20;;;;;;;2.21;45.92;102510.44;5037099;28;20059;-71
2021/04/26 00:28:25;;;;;;;2.08;1.02;;;;;;;2.30;45.68;102516.66;5015453;28;20052;-71
2021/04/26 00:30:50;;;;;;;1.90;0.50;;;;;;;2.32;45.38;102512.41;5033275;28;20043;-72
2021/04/26 00:33:16;;;;;;;0.95;0.20;;;;;;;2.21;45.27;102508.72;5035848;28;20037;-70
2021/04/26 00:35:42;;;;;;;4.32;0.50;;;;;;;2.13;45.38;102507.69;5031660;28;20037;-70
2021/04/26 00:38:07;;;;;;;4.10;0.65;;;;;;;2.04;45.39;102497.19;5022495;28;20021;-71
2021/04/26 00:40:33;;;;;;;5.57;0.50;;;;;;;2.04;46.00;102505.81;5016194;28;20544;-71
2021/04/26 00:42:58;;;;;;;3.42;0.70;;;;;;;2.02;46.16;102501.44;5037867;28;20050;-72
2021/04/26 00:45:26;;;;;;;1.90;0.50;;;;;;;2.10;45.62;102505.06;5021120;28;20100;-73
2021/04/26 00:47:52;;;;;;;4.30;0.40;;;;;;;2.05;45.86;102496.34;5030696;28;20035;-71
2021/04/26 00:50:25;;;;;;;3.55;0.55;;;;;;;2.00;45.85;102495.34;5000428;28;20762;-70
2021/04/26 00:52:51;;;;;;;3.72;0.70;;;;;;;1.92;45.68;102493.50;5032338;28;20041;-67
2021/04/26 00:55:20;;;;;;;1.60;0.80;;;;;;;1.83;45.71;102485.56;5017519;28;20147;-66
2021/04/26 00:57:47;;;;;;;3.65;0.50;;;;;;;1.86;45.75;102487.34;5019421;28;20029;-66
2021/04/26 01:00:13;;;;;;;3.15;0.50;;;;;;;1.91;45.91;102490.91;5032830;28;20044;-66
2021/04/26 01:02:41;;;;;;;10.68;0.80;;;;;;;1.75;45.91;102484.50;5035746;28;20052;-66
2021/04/26 01:05:10;;;;;;;2.47;0.52;;;;;;;1.85;45.83;102478.72;4999316;28;20489;-67
2021/04/26 01:07:38;;;;;;;5.32;0.82;;;;;;;1.83;45.57;102479.53;5033054;28;20033;-68
2021/04/26 01:10:08;;;;;;;4.68;0.47;;;;;;;1.77;45.87;102477.69;5019119;28;20040;-68
2021/04/26 01:13:07;;;;;;;5.45;1.15;;;;;;;1.65;46.23;102482.56;5024453;28;20033;-68
2021/04/26 01:15:41;;;;;;;2.95;0.50;;;;;;;1.72;46.11;102485.31;5032120;28;20041;-68
2021/04/26 01:18:46;;;;;;;1.35;0.50;;;;;;;1.77;45.77;102482.84;5003825;28;20593;-68
2021/04/26 01:21:36;;;;;;;2.58;0.70;;;;;;;1.76;45.69;102469.94;5015849;28;20040;-70
2021/04/26 01:24:37;;;;;;;5.10;0.65;;;;;;;1.60;45.70;102473.88;4993914;28;20060;-71
2021/04/26 01:27:06;;;;;;;3.00;0.73;;;;;;;1.54;45.87;102484.03;5032798;28;20203;-71
2021/04/26 01:29:51;;;;;;;3.30;0.70;;;;;;;1.50;46.06;102472.78;5023972;28;20037;-71
2021/04/26 01:32:54;;;;;;;4.53;0.65;;;;;;;1.40;46.35;102461.38;5021758;28;20030;-71
2021/04/26 01:35:24;;;;;;;1.67;0.40;;;;;;;1.48;45.98;102470.19;5017097;28;20033;-70
2021/04/26 01:37:55;;;;;;;1.80;0.50;;;;;;;1.51;45.87;102465.09;5020053;28;20040;-71
2021/04/26 01:40:22;;;;;;;1.23;0.30;;;;;;;1.42;46.49;102462.28;5030962;28;20032;-71
2021/04/26 01:42:52;;;;;;;3.53;0.50;;;;;;;1.39;46.50;102454.44;5032200;28;20032;-71
2021/04/26 01:45:19;;;;;;;5.10;0.60;;;;;;;1.46;45.76;102456.38;5011245;28;20393;-73
2021/04/26 01:47:46;;;;;;;1.40;0.45;;;;;;;1.39;45.81;102462.16;5006867;28;20052;-72
2021/04/26 01:50:14;;;;;;;3.97;0.43;;;;;;;1.37;45.84;102461.25;5001678;28;20083;-72
2021/04/26 01:52:40;;;;;;;1.30;0.28;;;;;;;1.31;45.69;102462.00;5021830;28;20037;-72
2021/04/26 01:55:09;;;;;;;3.03;0.85;;;;;;;1.27;46.08;102454.16;5006685;28;20121;-72
2021/04/26 01:57:40;;;;;;;1.23;0.55;;;;;;;1.32;45.85;102457.72;5016393;28;20714;-71
2021/04/26 02:00:18;;;;;;;2.67;0.30;;;;;;;1.28;45.82;102455.91;5028158;28;20033;-71
2021/04/26 02:03:08;;;;;;;4.57;0.60;;;;;;;1.28;45.96;102456.78;5026457;28;20040;-74
2021/04/26 02:05:42;;;;;;;2.85;0.43;;;;;;;1.26;45.61;102449.81;5017415;28;20068;-71
2021/04/26 02:08:13;;;;;;;2.63;0.50;;;;;;;1.21;46.18;102449.72;5022192;28;20032;-72
2021/04/26 02:10:41;;;;;;;7.43;0.77;;;;;;;1.34;45.68;102445.75;5008373;28;20069;-71
2021/04/26 02:13:07;;;;;;;4.95;0.40;;;;;;;1.29;45.64;102449.91;5019840;28;20037;-71
2021/04/26 02:15:35;;;;;;;3.55;1.08;;;;;;;1.24;45.76;102454.09;5027099;28;20078;-71
2021/04/26 02:18:02;;;;;;;7.93;0.85;;;;;;;1.26;45.76;102442.09;5025274;28;20044;-67
2021/04/26 02:20:28;;;;;;;1.42;0.30;;;;;;;1.19;45.98;102442.78;5037094;28;20036;-68
2021/04/26 02:22:54;;;;;;;1.95;0.35;;;;;;;1.28;46.03;102446.47;5026392;28;20029;-68
2021/04/26 02:25:20;;;;;;;4.53;0.63;;;;;;;1.27;45.80;102444.72;5004940;28;20393;-69
2021/04/26 02:27:47;;;;;;;1.60;0.47;;;;;;;1.31;45.76;102436.25;5004899;28;20396;-68
2021/04/26 02:30:14;;;;;;;3.58;0.30;;;;;;;1.19;45.76;102435.94;5018961;28;20037;-67
2021/04/26 02:33:02;;;;;;;2.45;0.35;;;;;;;1.10;45.91;102439.19;5037325;28;20060;-69
2021/04/26 02:35:39;;;;;;;3.05;0.50;;;;;;;1.12;45.88;102434.03;5025458;28;20041;-68
2021/04/26 02:38:08;;;;;;;1.38;0.50;;;;;;;1.06;45.76;102432.22;5017119;28;20036;-67
2021/04/26 02:40:43;;;;;;;3.33;0.50;;;;;;;0.93;46.11;102427.59;5026378;28;20033;-67
2021/04/26 02:43:12;;;;;;;2.22;0.45;;;;;;;0.85;46.29;102424.81;5017025;28;20039;-67
2021/04/26 02:45:47;;;;;;;7.28;0.57;;;;;;;0.67;46.64;102420.06;5016529;28;20124;-73
2021/04/26 02:48:14;;;;;;;1.83;0.40;;;;;;;0.76;46.38;102416.84;5017616;28;20099;-74
2021/04/26 02:50:46;;;;;;;4.38;0.90;;;;;;;0.72;46.46;102411.59;5021748;28;20037;-74
2021/04/26 02:53:16;;;;;;;2.38;0.35;;;;;;;0.65;46.53;102421.72;5034694;28;20583;-72
2021/04/26 02:55:44;;;;;;;3.97;0.55;;;;;;;0.61;46.76;102409.63;5016687;28;20060;-73
2021/04/26 02:58:11;;;;;;;5.72;0.70;;;;;;;0.68;46.65;102410.66;5018407;28;20116;-72
2021/04/26 03:00:38;;;;;;;3.08;0.40;;;;;;;0.80;46.54;102404.94;5036199;28;20028;-73
2021/04/26 03:03:22;;;;;;;2.35;0.50;;;;;;;0.79;46.46;102403.19;5035434;28;20516;-71
2021/04/26 03:05:50;;;;;;;1.77;0.43;;;;;;;0.78;46.51;102396.31;5007620;28;20551;-73
2021/04/26 03:08:17;;;;;;;3.65;0.60;;;;;;;0.68;46.67;102401.22;5021549;28;20513;-71
2021/04/26 03:10:47;;;;;;;3.08;0.70;;;;;;;0.77;46.65;102394.56;5036073;28;20034;-73
2021/04/26 03:13:15;;;;;;;2.38;0.40;;;;;;;0.79;46.82;102395.47;5025604;28;20044;-72
2021/04/26 03:15:40;;;;;;;1.33;0.40;;;;;;;0.82;46.78;102403.28;5024272;28;20128;-72
2021/04/26 03:18:12;;;;;;;3.85;0.90;;;;;;;0.82;46.87;102403.28;5003861;28;20029;-72
2021/04/26 03:20:39;;;;;;;5.32;0.70;;;;;;;0.77;46.64;102395.44;5021024;28;20438;-72
2021/04/26 03:23:14;;;;;;;;;;;;;;;0.75;46.86;102388.50;5035433;28;20052;-73
2021/04/26 03:25:40;;;;;;;3.97;0.88;;;;;;;0.74;46.69;102399.63;5020808;28;19923;-73
2021/04/26 03:28:06;;;;;;;2.10;0.80;;;;;;;0.76;46.85;102390.25;5020752;28;20025;-74
2021/04/26 03:30:37;;;;;;;3.13;0.50;;;;;;;0.74;46.82;102390.19;5035279;28;20076;-72
2021/04/26 03:33:13;;;;;;;2.22;0.40;;;;;;;0.64;46.61;102396.81;5019180;28;20120;-72
2021/04/26 03:35:40;;;;;;;3.08;0.50;;;;;;;0.69;46.66;102400.38;5020590;28;20330;-69
2021/04/26 03:38:06;;;;;;;2.85;0.50;;;;;;;0.74;46.44;102389.34;5017718;28;20053;-69
2021/04/26 03:40:33;;;;;;;2.47;0.70;;;;;;;0.65;46.44;102390.84;5034820;28;20028;-69
2021/04/26 03:43:00;;;;;;;2.70;0.35;;;;;;;0.72;46.23;102391.00;5014500;28;20072;-69
2021/04/26 03:45:46;;;;;;;2.53;0.52;;;;;;;0.63;46.25;102387.34;5011124;28;20040;-71
2021/04/26 03:48:30;;;;;;;3.17;0.52;;;;;;;0.64;46.43;102380.53;5034166;28;20039;-72
2021/04/26 03:51:15;;;;;;;2.00;1.00;;;;;;;0.63;46.33;102387.34;5013399;28;20043;-71
2021/04/26 03:53:59;;;;;;;2.55;0.77;;;;;;;0.72;46.29;102375.56;5035823;28;20071;-72
2021/04/26 03:56:32;;;;;;;2.05;0.45;;;;;;;0.76;46.54;102372.22;5032954;28;20026;-71
2021/04/26 03:58:58;;;;;;;3.80;0.82;;;;;;;0.73;46.22;102372.16;5034163;28;20393;-72
2021/04/26 04:01:24;;;;;;;2.42;0.50;;;;;;;0.73;46.29;102377.31;5023911;28;20044;-72
2021/04/26 04:03:50;;;;;;;5.70;0.43;;;;;;;0.66;46.33;102366.88;5005794;28;20032;-71
2021/04/26 04:06:16;;;;;;;1.50;0.50;;;;;;;0.68;46.27;102365.19;5024518;28;20604;-69
2021/04/26 04:09:02;;;;;;;1.30;0.50;;;;;;;0.64;46.12;102363.38;5034021;28;20051;-68
2021/04/26 04:11:43;;;;;;;2.03;0.70;;;;;;;0.67;46.24;102358.28;5032921;28;20037;-68
2021/04/26 04:14:32;;;;;;;4.32;1.23;;;;;;;0.57;46.23;102356.34;5002523;28;20499;-69
2021/04/26 04:17:03;;;;;;;1.38;0.73;;;;;;;0.59;46.37;102357.25;5018014;28;20028;-69
2021/04/26 04:19:29;;;;;;;2.13;0.88;;;;;;;0.64;46.29;102344.50;5016882;28;20033;-68
2021/04/26 04:21:56;;;;;;;4.63;1.00;;;;;;;0.63;46.33;102346.19;5016954;28;20032;-68
2021/04/26 04:24:22;;;;;;;1.50;0.30;;;;;;;0.67;46.24;102348.00;5018152;28;20422;-68
2021/04/26 04:26:50;;;;;;;2.05;0.40;;;;;;;0.69;46.26;102348.91;5035099;28;20477;-70
2021/04/26 04:29:15;;;;;;;4.60;0.90;;;;;;;0.79;46.40;102351.72;5001690;28;20148;-68
2021/04/26 04:31:47;;;;;;;4.68;0.70;;;;;;;0.86;46.12;102351.03;5018047;28;20044;-67
2021/04/26 04:34:36;;;;;;;1.63;0.98;;;;;;;1.00;46.16;102347.09;5031198;28;20041;-68
2021/04/26 04:37:20;;;;;;;2.15;0.73;;;;;;;1.40;45.38;102347.13;5033671;28;20508;-68
2021/04/26 04:40:18;;;;;;;4.30;1.17;;;;;;;1.98;44.37;102350.94;5000543;28;20052;-69
2021/04/26 04:42:46;;;;;;;3.03;0.65;;;;;;;2.16;43.66;102347.84;5031822;28;20053;-68
2021/04/26 04:45:13;;;;;;;4.15;0.60;;;;;;;2.23;42.88;102349.69;5014185;28;20036;-67
2021/04/26 04:47:57;;;;;;;1.33;0.45;;;;;;;1.85;43.00;102347.22;5031779;28;20040;-66
2021/04/26 04:50:24;;;;;;;4.90;0.57;;;;;;;1.49;43.61;102348.22;5018081;28;20072;-66
2021/04/26 04:52:51;;;;;;;6.60;1.27;;;;;;;1.39;44.29;102341.06;5016987;28;20052;-66
2021/04/26 04:55:17;;;;;;;5.32;0.57;;;;;;;1.35;44.39;102344.44;5016271;28;20132;-71
2021/04/26 04:57:42;;;;;;;7.03;0.70;;;;;;;1.45;44.75;102346.41;5032624;28;20036;-69
2021/04/26 05:00:09;;;;;;;6.13;1.13;;;;;;;1.49;44.88;102340.47;5020285;28;20041;-69
2021/04/26 05:03:07;;;;;;;9.10;1.60;;;;;;;2.16;44.46;102337.50;5003239;28;20042;-67
2021/04/26 05:05:51;;;;;;;2.90;1.20;;;;;;;4.89;41.08;102336.75;5031981;28;20099;-66
2021/04/26 05:08:35;;;;;;;3.40;0.90;;;;;;;5.29;38.06;102331.84;5027957;28;20163;-67
2021/04/26 05:11:19;;;;;;;3.22;1.65;;;;;;;5.62;37.44;102329.41;5033323;28;20440;-66
2021/04/26 05:14:08;;;;;;;7.38;2.70;;;;;;;6.31;34.91;102333.06;5009399;28;20127;-67
2021/04/26 05:16:34;;;;;;;9.45;2.67;;;;;;;7.12;33.73;102323.50;5017500;28;20585;-65
2021/04/26 05:19:01;;;;;;;6.35;2.22;;;;;;;8.44;32.35;102315.91;5033865;28;20037;-68
2021/04/26 05:21:27;;;;;;;8.25;2.60;;;;;;;9.05;30.50;102317.97;5030319;28;20470;-68
2021/04/26 05:23:54;;;;;;;9.48;2.67;;;;;;;10.28;28.94;102313.81;5034025;28;20044;-68
2021/04/26 05:26:21;;;;;;;9.30;2.60;;;;;;;10.85;27.67;102320.69;5029726;28;20041;-69
2021/04/26 05:28:47;;;;;;;9.25;3.08;;;;;;;11.11;27.31;102319.38;5014827;28;20037;-68
2021/04/26 05:31:12;;;;;;;6.38;2.47;;;;;;;11.67;26.54;102327.81;5032358;28;20075;-67
2021/04/26 05:33:38;;;;;;;4.50;1.90;;;;;;;13.55;25.59;102328.34;5018747;28;20029;-68
2021/04/26 05:36:19;;;;;;;6.03;1.70;;;;;;;14.75;23.33;102320.19;5018957;28;20473;-68
2021/04/26 05:38:57;;;;;;;5.60;1.08;;;;;;;16.18;22.14;102314.84;5037250;28;20041;-68
2021/04/26 05:41:22;;;;;;;5.63;1.00;;;;;;;16.71;21.51;102313.50;5016726;28;20059;-68
2021/04/26 05:43:48;;;;;;;2.85;0.68;;;;;;;17.92;20.40;102323.88;5003837;28;20079;-69
2021/04/26 05:46:15;;;;;;;2.30;0.43;;;;;;;18.47;20.04;102318.53;5017878;28;20025;-68
2021/04/26 05:48:40;;;;;;;4.10;0.55;;;;;;;19.13;19.36;102311.59;5035223;28;20036;-70
2021/04/26 05:51:06;;;;;;;3.05;0.40;;;;;;;19.55;18.85;102315.53;5016561;28;20895;-70
2021/04/26 05:53:32;;;;;;;2.15;0.30;;;;;;;19.62;18.71;102316.88;5034399;28;20041;-70
2021/04/26 05:55:57;;;;;;;1.50;0.50;;;;;;;19.57;18.46;102324.25;5030161;28;20041;-72
2021/04/26 05:58:23;;;;;;;2.58;0.40;;;;;;;20.02;18.49;102319.94;5034594;28;20029;-76
2021/04/26 06:00:49;;;;;;;3.28;0.52;;;;;;;20.22;18.03;102318.81;5033592;28;20048;-72
2021/04/26 06:03:15;;;;;;;3.03;0.50;;;;;;;19.87;18.42;102310.19;5020448;28;20064;-71
2021/04/26 06:05:41;;;;;;;5.65;0.50;;;;;;;19.86;18.15;102311.13;5035625;28;20109;-73
2021/04/26 06:08:06;;;;;;;4.30;0.57;;;;;;;20.92;17.50;102305.75;5032127;28;20041;-71
2021/04/26 06:10:32;;;;;;;1.85;0.40;;;;;;;20.73;17.92;102307.84;5035836;28;20072;-75
2021/04/26 06:12:57;;;;;;;3.88;0.63;;;;;;;21.38;17.81;102298.50;5032366;28;20049;-67
2021/04/26 06:15:23;;;;;;;3.97;0.40;;;;;;;21.32;16.72;102292.63;5031406;28;20026;-67
2021/04/26 06:17:49;;;;;;;4.80;0.35;;;;;;;22.15;16.94;102302.41;5033366;28;20386;-67
2021/04/26 06:20:15;;;;;;;2.40;0.32;;;;;;;21.75;16.74;102303.19;5035169;28;20039;-66
2021/04/26 06:22:41;;;;;;;1.85;0.40;;;;;;;22.86;15.51;102293.09;5035141;28;20456;-68
2021/04/26 06:25:07;;;;;;;2.72;0.25;;;;;;;21.17;17.42;102295.41;5034289;28;20041;-67
2021/04/26 06:27:33;;;;;;;3.10;0.60;;;;;;;21.13;16.86;102305.38;5032345;28;20432;-68
2021/04/26 06:29:58;;;;;;;4.25;0.52;;;;;;;20.81;17.24;102292.25;5037397;28;20116;-67
2021/04/26 06:32:24;;;;;;;1.67;0.25;;;;;;;20.88;18.09;102298.94;5037175;28;20040;-67
2021/04/26 06:34:51;;;;;;;1.50;0.17;;;;;;;21.73;16.40;102297.09;5037607;28;20056;-67
2021/04/26 06:37:17;;;;;;;1.90;0.30;;;;;;;22.91;15.10;102290.94;5018956;28;20048;-67
2021/04/26 06:39:42;;;;;;;1.67;0.20;;;;;;;22.53;15.24;102290.94;5034611;28;20033;-69
2021/04/26 06:42:08;;;;;;;5.63;0.25;;;;;;;21.99;16.25;102297.22;5032634;28;20115;-67
2021/04/26 06:44:33;;;;;;;1.55;0.20;;;;;;;23.05;14.76;102297.13;5034864;28;20052;-68
2021/04/26 06:46:59;;;;;;;3.08;0.32;;;;;;;23.03;14.79;102299.91;5033085;28;20037;-66
2021/04/26 06:49:25;;;;;;;2.42;0.40;;;;;;;22.59;15.52;102298.50;5004709;28;20044;-66
2021/04/26 06:51:51;;;;;;;4.47;0.77;;;;;;;20.97;16.73;102296.66;5025597;28;20349;-66
2021/04/26 06:54:19;;;;;;;2.65;0.20;;;;;;;20.46;17.39;102297.91;5017648;28;20041;-65
2021/04/26 06:56:45;;;;;;;5.13;0.77;;;;;;;19.96;17.53;102298.19;5034582;28;20045;-65
2021/04/26 06:59:10;;;;;;;4.78;0.40;;;;;;;21.56;16.70;102295.56;5031032;28;20037;-67
2021/04/26 07:01:36;;;;;;;1.73;0.20;;;;;;;21.10;15.85;102293.13;5034942;28;20036;-66
2021/04/26 07:04:01;;;;;;;1.27;0.10;;;;;;;21.60;16.75;102290.91;5033976;28;20514;-67
2021/04/26 07:06:27;;;;;;;2.30;0.20;;;;;;;21.47;16.17;102289.97;5018137;28;20032;-68
2021/04/26 07:08:52;;;;;;;0.77;0.10;;;;;;;20.69;16.29;102285.91;5016177;28;20029;-66
2021/04/26 07:11:18;;;;;;;1.02;0.20;;;;;;;20.83;16.96;102286.84;5034599;28;20489;-68
2021/04/26 07:13:44;;;;;;;3.15;0.40;;;;;;;21.31;15.90;102279.44;5031067;28;20100;-68
2021/04/26 07:16:10;;;;;;;2.08;0.52;;;;;;;20.94;16.62;102274.63;5034809;28;20075;-67
2021/04/26 07:18:35;;;;;;;2.40;0.47;;;;;;;21.06;15.80;102274.81;5017496;28;20040;-66
2021/04/26 07:21:01;;;;;;;4.78;0.25;;;;;;;20.63;16.79;102277.44;5031274;28;20064;-66
2021/04/26 07:23:26;;;;;;;3.45;0.30;;;;;;;21.71;16.13;102275.09;5019820;28;20052;-67
2021/04/26 07:25:52;;;;;;;3.17;0.40;;;;;;;21.83;16.05;102281.41;5034256;28;20102;-66
2021/04/26 07:28:18;;;;;;;7.05;0.63;;;;;;;22.51;15.68;102277.72;5036329;28;20029;-66
2021/04/26 07:30:43;;;;;;;4.00;0.20;;;;;;;21.53;16.55;102273.63;5035134;28;20458;-66
2021/04/26 07:33:09;;;;;;;4.25;0.30;;;;;;;21.69;15.95;102274.34;5035589;28;20036;-66
2021/04/26 07:35:34;;;;;;;0.43;0.13;;;;;;;21.82;15.80;102277.03;5031305;28;20544;-66
2021/04/26 07:38:00;;;;;;;1.88;0.25;;;;;;;21.23;16.18;102263.97;5032464;28;20370;-66
2021/04/26 07:40:25;;;;;;;1.35;0.57;;;;;;;20.77;16.17;102264.16;5033511;28;20099;-66
2021/04/26 07:42:51;;;;;;;2.15;0.30;;;;;;;18.86;17.37;102275.00;5034396;28;20092;-66
2021/04/26 07:45:19;;;;;;;1.48;0.30;;;;;;;15.86;20.03;102269.50;5036342;28;20067;-65
2021/04/26 07:47:47;;;;;;;1.73;0.28;;;;;;;14.17;22.09;102274.78;5035565;28;21271;-66
2021/04/26 07:50:13;;;;;;;0.80;0.20;;;;;;;16.32;19.33;102262.34;5035606;28;20055;-66
2021/04/26 07:52:39;;;;;;;1.80;0.40;;;;;;;19.06;17.46;102259.88;5034699;28;20033;-66
2021/04/26 07:55:05;;;;;;;1.13;0.17;;;;;;;20.83;15.14;102268.25;5020795;28;20037;-66
2021/04/26 07:57:32;;;;;;;2.00;0.20;;;;;;;18.04;16.71;102264.22;5033364;28;20029;-66
2021/04/26 07:59:58;;;;;;;2.55;0.22;;;;;;;16.41;18.99;102256.69;5017905;28;20346;-66
2021/04/26 08:02:24;;;;;;;4.25;0.20;;;;;;;16.62;18.38;102259.31;5031687;28;20037;-66
2021/04/26 08:04:50;;;;;;;1.08;0.38;;;;;;;19.16;16.22;102247.81;5014515;28;20092;-65
2021/04/26 08:07:16;;;;;;;4.55;0.10;;;;;;;19.50;16.67;102252.09;5033562;28;20113;-65
2021/04/26 08:09:41;;;;;;;2.22;0.40;;;;;;;18.24;17.92;102247.38;5028706;28;20052;-67
2021/04/26 08:12:07;;;;;;;1.23;0.10;;;;;;;19.78;14.87;102249.72;5011642;28;20490;-66
2021/04/26 08:14:33;;;;;;;0.95;0.32;;;;;;;20.12;16.27;102246.78;5022054;28;20603;-65
2021/04/26 08:16:58;;;;;;;0.82;0.20;;;;;;;20.21;15.50;102249.88;5016927;28;20117;-66
2021/04/26 08:19:24;;;;;;;3.13;0.13;;;;;;;17.29;17.05;102249.28;5030392;28;20040;-67
2021/04/26 08:21:50;;;;;;;1.70;0.20;;;;;;;15.17;19.95;102259.84;5029602;28;20030;-65
2021/04/26 08:24:16;;;;;;;3.13;0.30;;;;;;;12.62;22.26;102262.63;5033485;28;20049;-65
2021/04/26 08:26:41;;;;;;;3.13;0.43;;;;;;;12.18;22.64;102261.16;5033364;28;20025;-67
2021/04/26 08:29:08;;;;;;;0.75;0.30;;;;;;;12.11;22.74;102254.34;5018341;28;20024;-66
2021/04/26 08:31:33;;;;;;;3.80;0.22;;;;;;;15.55;18.52;102249.66;5032435;28;20472;-67
2021/04/26 08:33:59;;;;;;;3.90;0.10;;;;;;;17.85;17.34;102235.19;5032710;28;20091;-65
2021/04/26 08:36:25;;;;;;;0.85;0.20;;;;;;;18.78;14.67;102245.41;5017161;28;20040;-66
2021/04/26 08:38:50;;;;;;;2.05;0.10;;;;;;;18.30;15.54;102244.41;5021668;28;20108;-67
2021/04/26 08:41:16;;;;;;;2.40;0.40;;;;;;;19.09;16.03;102244.66;5032094;28;20063;-66
2021/04/26 08:43:44;;;;;;;3.95;0.45;;;;;;;19.36;15.06;102233.44;5016824;28;20037;-66
2021/04/26 08:46:10;;;;;;;1.25;0.20;;;;;;;20.04;14.29;102243.75;5030573;28;20120;-67
2021/04/26 08:48:35;;;;;;;5.38;0.20;;;;;;;19.15;14.84;102235.50;5022583;28;20122;-65
2021/04/26 08:51:02;;;;;;;1.00;0.28;;;;;;;16.35;15.95;102241.13;5014360;28;20057;-65
2021/04/26 08:53:28;;;;;;;3.05;0.10;;;;;;;14.41;19.56;102245.06;5016062;28;20033;-65
2021/04/26 08:55:55;;;;;;;0.60;0.10;;;;;;;15.31;19.37;102240.06;5034252;28;20088;-65
2021/04/26 08:58:20;;;;;;;1.20;0.10;;;;;;;16.65;17.90;102238.06;5022726;28;20112;-66
2021/04/26 09:00:46;;;;;;;0.50;0.10;;;;;;;16.75;17.86;102231.47;5032734;28;20111;-66
2021/04/26 09:03:12;;;;;;;1.30;0.30;;;;;;;15.20;18.88;102231.69;5019564;28;20077;-65
2021/04/26 09:05:44;;;;;;;2.80;0.25;;;;;;;13.01;21.47;102233.63;5033462;28;20040;-67
2021/04/26 09:08:12;;;;;;;0.65;0.10;;;;;;;12.15;22.95;102235.88;5035833;28;20025;-66
2021/04/26 09:10:44;;;;;;;1.80;0.10;;;;;;;11.39;23.87;102238.50;5032897;28;20052;-66
2021/04/26 09:13:52;;;;;;;1.30;0.25;;;;;;;11.58;24.27;102233.75;5016488;28;20037;-65
2021/04/26 09:16:21;;;;;;;0.55;0.20;;;;;;;10.99;25.03;102224.50;5000028;28;20226;-66
2021/04/26 09:18:59;;;;;;;1.40;0.20;;;;;;;11.31;25.14;102225.59;5032096;28;20057;-67
2021/04/26 09:21:26;;;;;;;2.35;0.20;;;;;;;12.13;24.33;102226.34;5034036;28;20555;-66
2021/04/26 09:24:12;;;;;;;0.70;0.20;;;;;;;12.04;23.48;102223.06;5035517;28;20028;-65
2021/04/26 09:26:39;;;;;;;0.95;0.28;;;;;;;12.94;22.44;102231.19;5014497;28;20131;-66
2021/04/26 09:29:22;;;;;;;0.98;0.10;;;;;;;13.36;21.40;102228.22;5035718;28;20120;-66
2021/04/26 09:32:13;;;;;;;1.55;0.15;;;;;;;13.72;20.07;102224.50;5034049;28;20037;-65
2021/04/26 09:34:45;;;;;;;3.47;0.20;;;;;;;14.27;21.20;102219.16;5033764;28;20624;-65
2021/04/26 09:37:15;;;;;;;0.68;0.10;;;;;;;14.83;20.08;102222.50;5033151;28;20029;-65
2021/04/26 09:40:05;;;;;;;4.88;0.20;;;;;;;15.15;20.17;102219.53;5024367;28;20243;-65
2021/04/26 09:42:55;;;;;;;1.27;0.30;;;;;;;14.40;20.66;102221.41;5030447;28;20037;-66
2021/04/26 09:45:37;;;;;;;5.82;0.30;;;;;;;13.44;20.86;102224.47;5034574;28;20040;-65
2021/04/26 09:48:08;;;;;;;;;;;;;;;14.00;20.94;102214.84;5020008;28;20041;-65
2021/04/26 09:50:48;;;;;;;0.73;0.10;;;;;;;13.76;21.21;102227.88;5034609;28;19921;-66
2021/04/26 09:53:13;;;;;;;1.40;0.20;;;;;;;12.92;21.93;102220.78;5026411;28;20068;-66
2021/04/26 09:55:39;;;;;;;2.00;0.13;;;;;;;11.83;22.33;102219.19;5018889;28;20051;-66
2021/04/26 09:58:04;;;;;;;1.40;0.20;;;;;;;11.51;23.36;102212.06;5025280;28;20091;-65
2021/04/26 10:00:30;;;;;;;3.42;0.25;;;;;;;12.95;23.67;102212.78;5041465;28;20167;-65
2021/04/26 10:02:56;;;;;;;0.55;0.40;;;;;;;14.24;20.33;102213.19;5031636;28;20409;-66
2021/04/26 10:05:21;;;;;;;0.80;0.20;;;;;;;14.11;20.96;102212.72;5033028;28;20044;-65
2021/04/26 10:07:48;;;;;;;0.28;0.10;;;;;;;12.79;22.85;102211.53;5039879;28;20029;-64
2021/04/26 10:10:14;;;;;;;1.13;0.10;;;;;;;12.62;22.84;102212.78;5037345;28;20034;-65
2021/04/26 10:12:39;;;;;;;1.23;0.10;;;;;;;12.01;23.52;102211.78;5039968;28;20059;-66
2021/04/26 10:15:06;;;;;;;1.70;0.30;;;;;;;11.85;23.41;102206.06;5038241;28;20033;-64
2021/04/26 10:17:33;;;;;;;1.65;0.10;;;;;;;11.22;24.02;102204.88;5038024;28;20468;-66
2021/04/26 10:19:59;;;;;;;1.27;0.15;;;;;;;11.57;24.24;102205.81;5034199;28;20056;-65
2021/04/26 10:22:42;;;;;;;4.20;0.20;;;;;;;11.53;24.07;102199.81;5026937;28;20029;-63
2021/04/26 10:25:09;;;;;;;3.05;1.00;;;;;;;11.85;23.62;102195.59;5021510;28;20037;-64
2021/04/26 10:27:39;;;;;;;2.85;0.15;;;;;;;12.36;23.33;102194.31;5035611;28;20163;-65
2021/04/26 10:30:07;;;;;;;0.77;0.30;;;;;;;12.65;23.10;102183.88;5036960;28;20060;-64
2021/04/26 10:33:02;;;;;;;2.35;0.20;;;;;;;13.56;22.20;102180.34;5038695;28;20036;-64
2021/04/26 10:35:50;;;;;;;1.33;0.10;;;;;;;14.07;20.84;102180.41;5010693;28;20636;-64
2021/04/26 10:38:35;;;;;;;1.40;0.17;;;;;;;13.14;21.96;102180.75;5042247;28;20030;-64
2021/04/26 10:41:01;;;;;;;4.10;1.88;;;;;;;12.02;22.41;102174.19;5047185;28;20044;-66
2021/04/26 10:43:29;;;;;;;0.82;0.47;;;;;;;11.68;23.45;102178.47;5049075;28;20025;-63
2021/04/26 10:46:13;;;;;;;0.73;0.10;;;;;;;11.76;23.40;102169.59;5047023;28;20040;-65
2021/04/26 10:48:39;;;;;;;0.73;0.10;;;;;;;11.55;23.74;102170.94;5024360;28;20083;-64
2021/04/26 10:51:20;;;;;;;0.88;0.10;;;;;;;12.45;22.72;102165.22;5039412;28;20053;-65
2021/04/26 10:53:46;;;;;;;0.90;0.25;;;;;;;12.45;22.58;102159.97;5035602;28;20037;-65
2021/04/26 10:56:27;;;;;;;2.05;0.20;;;;;;;13.29;21.33;102154.03;5035740;28;20048;-65
2021/04/26 10:59:17;;;;;;;0.80;0.10;;;;;;;12.62;21.42;102152.47;5036237;28;20026;-67
2021/04/26 11:01:45;;;;;;;0.80;0.20;;;;;;;12.44;22.05;102153.84;5036840;28;20599;-65
2021/04/26 11:04:11;;;;;;;0.70;0.20;;;;;;;12.54;22.58;102146.59;5036407;28;20471;-66
2021/04/26 11:06:37;;;;;;;0.50;0.10;;;;;;;12.22;22.70;102153.59;5035723;28;20041;-65
2021/04/26 11:09:16;;;;;;;2.05;0.10;;;;;;;12.59;21.58;102143.84;5037028;28;20064;-65
2021/04/26 11:12:05;;;;;;;3.65;0.30;;;;;;;13.97;20.99;102136.97;5016654;28;20040;-65
2021/04/26 11:14:30;;;;;;;4.32;0.10;;;;;;;15.32;20.38;102132.00;5033809;28;20087;-64
2021/04/26 11:17:04;;;;;;;1.38;0.20;;;;;;;15.73;19.14;102132.09;5021483;28;20025;-64
2021/04/26 11:19:50;;;;;;;2.60;0.20;;;;;;;14.97;20.46;102128.97;5018800;28;20044;-65
2021/04/26 11:22:32;;;;;;;1.83;0.10;;;;;;;15.38;19.79;102128.25;5020205;28;20068;-67
2021/04/26 11:25:00;;;;;;;0.40;0.10;;;;;;;14.38;20.01;102131.16;5035235;28;20034;-65
2021/04/26 11:27:26;;;;;;;1.27;0.20;;;;;;;13.29;21.55;102127.78;5037439;28;20036;-67
2021/04/26 11:29:52;;;;;;;1.38;0.10;;;;;;;11.92;22.77;102129.03;5043296;28;20166;-66
2021/04/26 11:32:18;;;;;;;2.47;0.20;;;;;;;11.56;22.97;102123.78;5039680;28;20105;-64
2021/04/26 11:34:47;;;;;;;0.22;0.10;;;;;;;12.72;21.85;102126.03;5026074;28;20117;-65
2021/04/26 11:37:14;;;;;;;0.75;0.20;;;;;;;13.83;21.35;102112.91;5039494;28;20056;-64
2021/04/26 11:39:41;;;;;;;2.47;0.30;;;;;;;14.14;20.13;102120.59;5039027;28;20033;-65
2021/04/26 11:42:07;;;;;;;1.67;0.17;;;;;;;14.27;20.37;102103.47;5023731;28;20033;-66
2021/04/26 11:44:38;;;;;;;0.77;0.10;;;;;;;14.69;19.52;102110.72;5037265;28;20038;-64